Time;durP1;ratioP1;P1;durP2;ratioP2;P2;SDS_P1;SDS_P2;PMS_P1;PMS_P2;Temp;Humidity;BMP_temperature;BMP_pressure;BME280_temperature;BME280_humidity;BME280_pressure;Samples;Min_cycle;Max_cycle;Signal;HPM_P1;HPM_P2
2024/01/08 00:00:38;;;;;;;2.80;1.90;;;;;;;;;;6290084;28;24449;-63
2024/01/08 00:03:40;;;;;;;2.90;1.58;;;;;;;;;;6288865;28;24438;-64
2024/01/08 00:06:42;;;;;;;2.55;1.67;;;;;;;;;;6294222;28;24789;-63
2024/01/08 00:09:45;;;;;;;2.10;1.42;;;;;;;;;;6292497;28;24462;-63
2024/01/08 00:12:47;;;;;;;2.05;1.40;;;;;;;;;;6292974;28;24420;-63
2024/01/08 00:15:49;;;;;;;2.10;1.50;;;;;;;;;;6277816;28;24418;-62
2024/01/08 00:18:50;;;;;;;2.10;1.45;;;;;;;;;;6292952;28;24445;-63
2024/01/08 00:21:52;;;;;;;2.47;1.20;;;;;;;;;;6294720;28;24866;-63
2024/01/08 00:24:55;;;;;;;2.20;1.38;;;;;;;;;;6293828;28;24422;-63
2024/01/08 00:27:57;;;;;;;1.58;1.15;;;;;;;;;;6293396;28;24693;-63
2024/01/08 00:30:59;;;;;;;2.13;1.38;;;;;;;;;;6293821;28;24453;-64
2024/01/08 00:34:01;;;;;;;2.58;1.50;;;;;;;;;;6294730;28;24454;-63
2024/01/08 00:37:03;;;;;;;2.35;1.35;;;;;;;;;;6294982;28;24450;-64
2024/01/08 00:40:08;;;;;;;2.42;1.60;;;;;;;;;;6281799;28;24437;-64
2024/01/08 00:43:09;;;;;;;2.30;1.60;;;;;;;;;;6295252;28;24431;-63
2024/01/08 00:46:11;;;;;;;2.35;1.52;;;;;;;;;;6295934;28;24434;-66
2024/01/08 00:49:13;;;;;;;2.90;1.70;;;;;;;;;;6293107;28;24796;-64
2024/01/08 00:52:15;;;;;;;1.80;1.25;;;;;;;;;;6293715;28;24430;-63
2024/01/08 00:55:18;;;;;;;2.05;1.30;;;;;;;;;;6298743;28;24773;-64
2024/01/08 00:58:20;;;;;;;1.92;1.20;;;;;;;;;;6290346;28;24441;-64
2024/01/08 01:01:21;;;;;;;1.40;1.00;;;;;;;;;;6292180;28;24819;-64
2024/01/08 01:04:23;;;;;;;1.58;1.08;;;;;;;;;;6291410;28;24418;-64
2024/01/08 01:07:26;;;;;;;1.65;1.10;;;;;;;;;;6296334;28;24422;-63
2024/01/08 01:10:29;;;;;;;2.50;1.00;;;;;;;;;;6293379;28;24425;-64
2024/01/08 01:13:31;;;;;;;1.80;0.90;;;;;;;;;;6276815;28;24418;-63
2024/01/08 01:16:34;;;;;;;1.60;1.00;;;;;;;;;;6276300;28;24419;-64
2024/01/08 01:19:35;;;;;;;1.40;1.00;;;;;;;;;;6274052;28;24423;-64
2024/01/08 01:22:37;;;;;;;1.50;1.10;;;;;;;;;;6273130;28;24418;-63
2024/01/08 01:25:40;;;;;;;1.40;0.85;;;;;;;;;;6293469;28;24419;-63
2024/01/08 01:28:42;;;;;;;1.37;0.80;;;;;;;;;;6292587;28;24875;-64
2024/01/08 01:31:44;;;;;;;1.50;0.80;;;;;;;;;;6290429;28;24422;-64
2024/01/08 01:34:46;;;;;;;1.27;0.80;;;;;;;;;;6293471;28;24500;-64
2024/01/08 01:37:48;;;;;;;1.58;0.88;;;;;;;;;;6290086;28;24426;-63
2024/01/08 01:40:51;;;;;;;1.03;0.80;;;;;;;;;;6273583;28;24426;-63
2024/01/08 01:43:53;;;;;;;1.23;0.80;;;;;;;;;;6290727;28;24419;-63
2024/01/08 01:46:55;;;;;;;1.40;0.90;;;;;;;;;;6288761;28;25170;-63
2024/01/08 01:49:57;;;;;;;1.30;0.85;;;;;;;;;;6291006;28;24440;-63
2024/01/08 01:52:58;;;;;;;1.25;0.80;;;;;;;;;;6288561;28;24412;-63
2024/01/08 01:56:01;;;;;;;1.00;0.65;;;;;;;;;;6291370;28;24430;-64
2024/01/08 01:59:04;;;;;;;1.70;0.90;;;;;;;;;;6264973;28;24618;-63
2024/01/08 02:02:07;;;;;;;1.30;0.90;;;;;;;;;;6293506;28;24423;-63
2024/01/08 02:05:10;;;;;;;1.00;0.80;;;;;;;;;;6294306;28;24704;-63
2024/01/08 02:08:12;;;;;;;1.38;0.70;;;;;;;;;;6277985;28;24407;-63
2024/01/08 02:11:16;;;;;;;1.13;0.80;;;;;;;;;;6291352;28;24561;-64
2024/01/08 02:14:17;;;;;;;1.45;0.88;;;;;;;;;;6272006;28;24664;-64
2024/01/08 02:17:19;;;;;;;1.00;0.70;;;;;;;;;;6292082;28;24419;-64
2024/01/08 02:20:21;;;;;;;1.65;0.70;;;;;;;;;;6289539;28;24480;-64
2024/01/08 02:23:24;;;;;;;0.90;0.70;;;;;;;;;;6293418;28;24488;-63
2024/01/08 02:26:26;;;;;;;0.98;0.70;;;;;;;;;;6294522;28;24446;-64
2024/01/08 02:29:28;;;;;;;1.27;0.60;;;;;;;;;;6292324;28;24848;-64
2024/01/08 02:32:30;;;;;;;1.20;0.80;;;;;;;;;;6290792;28;24423;-64
2024/01/08 02:35:32;;;;;;;1.88;0.75;;;;;;;;;;6289101;28;24422;-64
2024/01/08 02:38:35;;;;;;;1.20;0.80;;;;;;;;;;6292592;28;24522;-64
2024/01/08 02:41:37;;;;;;;1.25;0.80;;;;;;;;;;6288855;28;24429;-64
2024/01/08 02:44:38;;;;;;;1.08;0.77;;;;;;;;;;6292269;28;24429;-64
2024/01/08 02:47:40;;;;;;;1.30;0.90;;;;;;;;;;6293558;28;24629;-64
2024/01/08 02:50:42;;;;;;;1.40;0.90;;;;;;;;;;6278616;28;24437;-64
2024/01/08 02:53:46;;;;;;;1.23;0.90;;;;;;;;;;6292320;28;24434;-64
2024/01/08 02:56:47;;;;;;;1.70;1.00;;;;;;;;;;6270677;28;24605;-64
2024/01/08 02:59:49;;;;;;;1.90;1.00;;;;;;;;;;6291593;28;24461;-64
2024/01/08 03:02:51;;;;;;;1.25;0.90;;;;;;;;;;6269766;28;24477;-63
2024/01/08 03:05:54;;;;;;;1.65;0.93;;;;;;;;;;6290852;28;24410;-64
2024/01/08 03:08:57;;;;;;;1.33;0.85;;;;;;;;;;6291650;28;24427;-63
2024/01/08 03:11:59;;;;;;;1.58;0.95;;;;;;;;;;6289911;28;24423;-63
2024/01/08 03:15:00;;;;;;;1.50;0.80;;;;;;;;;;6289298;28;24434;-70
2024/01/08 03:18:02;;;;;;;2.08;0.85;;;;;;;;;;6288285;28;24857;-71
2024/01/08 03:21:04;;;;;;;1.43;1.00;;;;;;;;;;6288097;28;24506;-71
2024/01/08 03:24:08;;;;;;;1.17;0.80;;;;;;;;;;6290595;28;24484;-71
2024/01/08 03:27:10;;;;;;;1.90;0.90;;;;;;;;;;6289897;28;24418;-71
2024/01/08 03:30:12;;;;;;;1.50;0.85;;;;;;;;;;6289787;28;24956;-71
2024/01/08 03:33:14;;;;;;;1.20;0.90;;;;;;;;;;6290224;28;24423;-71
2024/01/08 03:36:15;;;;;;;1.20;0.75;;;;;;;;;;6289119;28;24415;-71
2024/01/08 03:39:19;;;;;;;1.70;1.00;;;;;;;;;;6288654;28;24653;-71
2024/01/08 03:42:20;;;;;;;1.40;0.80;;;;;;;;;;6289181;28;24450;-71
2024/01/08 03:45:22;;;;;;;1.40;0.90;;;;;;;;;;6292375;28;24630;-71
2024/01/08 03:48:24;;;;;;;1.23;0.87;;;;;;;;;;6291931;28;24644;-71
2024/01/08 03:51:26;;;;;;;1.10;0.80;;;;;;;;;;6284621;28;24832;-71
2024/01/08 03:54:29;;;;;;;1.20;0.80;;;;;;;;;;6289600;28;24430;-70
2024/01/08 03:57:31;;;;;;;1.60;0.90;;;;;;;;;;6286338;28;24580;-71
2024/01/08 04:00:33;;;;;;;1.00;0.70;;;;;;;;;;6290372;28;24514;-71
2024/01/08 04:03:35;;;;;;;1.48;0.90;;;;;;;;;;6288337;28;24867;-70
2024/01/08 04:06:36;;;;;;;1.92;0.73;;;;;;;;;;6275798;28;24626;-70
2024/01/08 04:09:41;;;;;;;1.30;0.80;;;;;;;;;;6285966;28;24543;-71
2024/01/08 04:12:43;;;;;;;1.10;0.90;;;;;;;;;;6289720;28;24793;-71
2024/01/08 04:15:45;;;;;;;1.67;0.80;;;;;;;;;;6288743;28;24418;-71
2024/01/08 04:18:46;;;;;;;1.45;1.02;;;;;;;;;;6257028;28;24865;-71
2024/01/08 04:21:48;;;;;;;1.85;0.88;;;;;;;;;;6295104;28;24434;-71
2024/01/08 04:24:51;;;;;;;1.73;1.00;;;;;;;;;;6293032;28;24682;-65
2024/01/08 04:27:54;;;;;;;1.10;0.77;;;;;;;;;;6271990;28;24829;-64
2024/01/08 04:30:56;;;;;;;1.17;0.87;;;;;;;;;;6288592;28;24415;-64
2024/01/08 04:33:58;;;;;;;1.05;0.80;;;;;;;;;;6288647;28;24438;-63
2024/01/08 04:36:59;;;;;;;1.35;0.95;;;;;;;;;;6287958;28;24824;-64
2024/01/08 04:40:03;;;;;;;1.57;0.87;;;;;;;;;;6286633;28;24843;-64
2024/01/08 04:43:05;;;;;;;1.42;1.00;;;;;;;;;;6269423;28;24488;-63
2024/01/08 04:46:09;;;;;;;1.48;0.80;;;;;;;;;;6287191;28;24485;-64
2024/01/08 04:49:11;;;;;;;1.23;0.90;;;;;;;;;;6290953;28;24464;-64
2024/01/08 04:52:12;;;;;;;1.20;0.80;;;;;;;;;;6294962;28;24488;-64
2024/01/08 04:55:16;;;;;;;2.15;0.90;;;;;;;;;;6295087;28;24431;-64
2024/01/08 04:58:17;;;;;;;1.30;0.70;;;;;;;;;;6289695;28;24599;-64
2024/01/08 05:01:19;;;;;;;1.02;0.70;;;;;;;;;;6293548;28;24443;-64
2024/01/08 05:04:21;;;;;;;1.00;0.70;;;;;;;;;;6295145;28;24414;-64
2024/01/08 05:07:23;;;;;;;1.00;0.63;;;;;;;;;;6292136;28;24419;-63
2024/01/08 05:10:26;;;;;;;0.80;0.60;;;;;;;;;;6291710;28;24426;-64
2024/01/08 05:13:28;;;;;;;1.40;0.80;;;;;;;;;;6292896;28;24411;-64
2024/01/08 05:16:29;;;;;;;1.17;0.82;;;;;;;;;;6290764;28;24815;-64
2024/01/08 05:19:31;;;;;;;1.02;0.80;;;;;;;;;;6295406;28;24412;-64
2024/01/08 05:22:33;;;;;;;0.82;0.60;;;;;;;;;;6287720;28;24412;-64
2024/01/08 05:25:36;;;;;;;0.93;0.70;;;;;;;;;;6296442;28;24419;-64
2024/01/08 05:28:38;;;;;;;1.40;0.65;;;;;;;;;;6293921;28;24841;-64
2024/01/08 05:31:41;;;;;;;1.23;0.70;;;;;;;;;;6297901;28;24472;-64
2024/01/08 05:34:43;;;;;;;0.98;0.60;;;;;;;;;;6293966;28;24816;-64
2024/01/08 05:37:45;;;;;;;1.00;0.67;;;;;;;;;;6291304;28;24533;-64
2024/01/08 05:40:49;;;;;;;1.50;0.68;;;;;;;;;;6292094;28;24427;-64
2024/01/08 05:43:51;;;;;;;0.87;0.60;;;;;;;;;;6292240;28;24449;-64
2024/01/08 05:46:53;;;;;;;1.10;0.70;;;;;;;;;;6294932;28;24423;-64
2024/01/08 05:49:54;;;;;;;1.10;0.60;;;;;;;;;;6291610;28;24429;-64
2024/01/08 05:52:56;;;;;;;1.25;0.70;;;;;;;;;;6272681;28;24426;-63
2024/01/08 05:56:00;;;;;;;1.17;0.70;;;;;;;;;;6290841;28;24553;-63
2024/01/08 05:59:01;;;;;;;1.35;0.70;;;;;;;;;;6295371;28;24494;-64
2024/01/08 06:02:03;;;;;;;1.10;0.70;;;;;;;;;;6287292;28;24418;-64
2024/01/08 06:05:06;;;;;;;0.93;0.60;;;;;;;;;;6291631;28;24426;-64
2024/01/08 06:08:08;;;;;;;1.40;0.60;;;;;;;;;;6293444;28;25001;-63
2024/01/08 06:11:11;;;;;;;1.23;0.77;;;;;;;;;;6288838;28;24419;-64
2024/01/08 06:14:13;;;;;;;1.23;0.70;;;;;;;;;;6290915;28;24419;-64
2024/01/08 06:17:15;;;;;;;1.40;0.70;;;;;;;;;;6287329;28;24427;-64
2024/01/08 06:20:17;;;;;;;1.13;0.60;;;;;;;;;;6292762;28;24427;-64
2024/01/08 06:23:19;;;;;;;1.17;0.60;;;;;;;;;;6293367;28;24628;-64
2024/01/08 06:26:22;;;;;;;0.98;0.70;;;;;;;;;;6272638;28;24439;-63
2024/01/08 06:29:24;;;;;;;1.83;0.80;;;;;;;;;;6293468;28;24426;-64
2024/01/08 06:32:26;;;;;;;1.35;0.90;;;;;;;;;;6273717;28;24476;-63
2024/01/08 06:35:28;;;;;;;1.20;0.80;;;;;;;;;;6274106;28;24802;-64
2024/01/08 06:38:30;;;;;;;1.20;0.68;;;;;;;;;;6290800;28;24426;-64
2024/01/08 06:41:33;;;;;;;1.40;0.90;;;;;;;;;;6278396;28;24419;-64
2024/01/08 06:44:35;;;;;;;1.50;0.60;;;;;;;;;;6290672;28;24429;-64
2024/01/08 06:47:37;;;;;;;1.92;0.85;;;;;;;;;;6292609;28;24601;-63
2024/01/08 06:50:40;;;;;;;2.43;0.80;;;;;;;;;;6295387;28;24446;-64
2024/01/08 06:53:41;;;;;;;1.60;0.80;;;;;;;;;;6294261;28;24434;-64
2024/01/08 06:56:45;;;;;;;1.52;0.85;;;;;;;;;;6296423;28;24426;-64
2024/01/08 06:59:47;;;;;;;1.50;0.70;;;;;;;;;;6293427;28;24430;-64
2024/01/08 07:02:49;;;;;;;2.30;0.90;;;;;;;;;;6288335;28;24859;-64
2024/01/08 07:05:51;;;;;;;1.10;0.77;;;;;;;;;;6269280;28;24446;-64
2024/01/08 07:08:52;;;;;;;1.25;0.70;;;;;;;;;;6270688;28;24839;-64
2024/01/08 07:11:56;;;;;;;1.10;0.80;;;;;;;;;;6290801;28;24438;-64
2024/01/08 07:14:57;;;;;;;1.45;1.00;;;;;;;;;;6289542;28;24851;-64
2024/01/08 07:17:59;;;;;;;1.17;0.70;;;;;;;;;;6288822;28;24828;-64
2024/01/08 07:21:01;;;;;;;1.40;0.80;;;;;;;;;;6287047;28;24609;-64
2024/01/08 07:24:03;;;;;;;1.77;1.00;;;;;;;;;;6274100;28;24427;-64
2024/01/08 07:27:07;;;;;;;2.23;1.00;;;;;;;;;;6273640;28;24812;-65
2024/01/08 07:30:11;;;;;;;1.73;1.00;;;;;;;;;;6289921;28;24427;-65
2024/01/08 07:33:13;;;;;;;1.30;1.00;;;;;;;;;;6289437;28;24426;-65
2024/01/08 07:36:15;;;;;;;1.67;1.05;;;;;;;;;;6288733;28;24504;-63
2024/01/08 07:39:16;;;;;;;2.13;1.10;;;;;;;;;;6273414;28;24439;-63
2024/01/08 07:42:20;;;;;;;2.17;1.10;;;;;;;;;;6290986;28;24425;-63
2024/01/08 07:45:22;;;;;;;1.63;0.90;;;;;;;;;;6288434;28;24653;-64
2024/01/08 07:48:24;;;;;;;1.40;0.90;;;;;;;;;;6284980;28;24430;-63
2024/01/08 07:51:26;;;;;;;3.55;1.33;;;;;;;;;;6287625;28;24434;-63
2024/01/08 07:54:28;;;;;;;2.53;1.23;;;;;;;;;;6290243;28;24461;-63
2024/01/08 07:57:31;;;;;;;1.50;1.10;;;;;;;;;;6292334;28;24449;-64
2024/01/08 08:00:33;;;;;;;1.80;0.97;;;;;;;;;;6290412;28;24505;-66
2024/01/08 08:03:35;;;;;;;1.73;1.00;;;;;;;;;;6291746;28;24494;-65
2024/01/08 08:06:36;;;;;;;1.58;0.85;;;;;;;;;;6289375;28;24625;-64
2024/01/08 08:09:38;;;;;;;2.03;1.13;;;;;;;;;;6284156;28;24419;-63
2024/01/08 08:12:41;;;;;;;1.80;1.20;;;;;;;;;;6289027;28;24420;-64
2024/01/08 08:15:43;;;;;;;3.42;1.35;;;;;;;;;;6285079;28;24420;-64
2024/01/08 08:18:45;;;;;;;2.47;1.25;;;;;;;;;;6288054;28;24423;-63
2024/01/08 08:21:47;;;;;;;2.50;1.27;;;;;;;;;;6287202;28;24653;-64
2024/01/08 08:24:49;;;;;;;2.27;1.10;;;;;;;;;;6290785;28;24476;-64
2024/01/08 08:27:52;;;;;;;2.78;1.40;;;;;;;;;;6292557;28;24878;-63
2024/01/08 08:30:54;;;;;;;1.80;1.10;;;;;;;;;;6291563;28;24424;-64
2024/01/08 08:33:55;;;;;;;2.60;1.17;;;;;;;;;;6295048;28;24861;-64
2024/01/08 08:36:57;;;;;;;3.08;1.30;;;;;;;;;;6277982;28;24418;-63
2024/01/08 08:39:59;;;;;;;2.28;1.13;;;;;;;;;;6292374;28;24459;-64
2024/01/08 08:43:02;;;;;;;2.17;1.40;;;;;;;;;;6292326;28;24423;-63
2024/01/08 08:46:04;;;;;;;2.45;1.40;;;;;;;;;;6290784;28;24430;-64
2024/01/08 08:49:06;;;;;;;2.17;1.20;;;;;;;;;;6292169;28;24438;-64
2024/01/08 08:52:08;;;;;;;3.08;1.33;;;;;;;;;;6293091;28;24541;-64
2024/01/08 08:55:10;;;;;;;2.50;1.13;;;;;;;;;;6289272;28;24436;-64
2024/01/08 08:58:13;;;;;;;2.20;1.17;;;;;;;;;;6295741;28;24438;-63
2024/01/08 09:01:15;;;;;;;2.13;1.37;;;;;;;;;;6290431;28;24451;-64
2024/01/08 09:04:17;;;;;;;2.92;1.60;;;;;;;;;;6293829;28;24414;-63
2024/01/08 09:07:22;;;;;;;2.83;1.60;;;;;;;;;;6292715;28;24435;-63
2024/01/08 09:10:23;;;;;;;3.20;1.50;;;;;;;;;;6279853;28;24821;-63
2024/01/08 09:13:26;;;;;;;4.63;1.65;;;;;;;;;;6291673;28;24454;-63
2024/01/08 09:16:28;;;;;;;2.78;1.60;;;;;;;;;;6292130;28;24808;-63
2024/01/08 09:19:30;;;;;;;2.78;1.40;;;;;;;;;;6292753;28;24568;-64
2024/01/08 09:22:31;;;;;;;2.95;1.58;;;;;;;;;;6291856;28;24437;-64
2024/01/08 09:25:33;;;;;;;3.33;1.50;;;;;;;;;;6293932;28;24495;-64
2024/01/08 09:28:36;;;;;;;3.15;1.63;;;;;;;;;;6277094;28;24427;-64
2024/01/08 09:31:38;;;;;;;3.08;1.60;;;;;;;;;;6289767;28;24422;-63
2024/01/08 09:34:40;;;;;;;2.40;1.50;;;;;;;;;;6292821;28;24431;-63
2024/01/08 09:37:41;;;;;;;2.78;1.40;;;;;;;;;;6291903;28;24423;-64
2024/01/08 09:40:43;;;;;;;2.10;1.60;;;;;;;;;;6291989;28;24423;-63
2024/01/08 09:43:47;;;;;;;2.15;1.50;;;;;;;;;;6290348;28;24411;-64
2024/01/08 09:46:52;;;;;;;2.17;1.58;;;;;;;;;;6291040;28;24419;-62
2024/01/08 09:49:54;;;;;;;2.80;1.50;;;;;;;;;;6291788;28;24462;-64
2024/01/08 09:52:56;;;;;;;3.40;1.50;;;;;;;;;;6292075;28;24419;-63
2024/01/08 09:55:59;;;;;;;3.25;1.63;;;;;;;;;;6291436;28;24419;-63
2024/01/08 09:59:02;;;;;;;2.53;1.80;;;;;;;;;;6290166;28;24482;-63
2024/01/08 10:02:04;;;;;;;2.92;1.77;;;;;;;;;;6292461;28;24672;-63
2024/01/08 10:05:07;;;;;;;2.50;1.70;;;;;;;;;;6290891;28;24454;-63
2024/01/08 10:08:09;;;;;;;3.30;2.10;;;;;;;;;;6290659;28;24425;-63
2024/01/08 10:11:11;;;;;;;3.30;2.22;;;;;;;;;;6291360;28;24419;-63
2024/01/08 10:14:14;;;;;;;3.30;1.98;;;;;;;;;;6291006;28;24634;-63
2024/01/08 10:17:16;;;;;;;3.40;2.07;;;;;;;;;;6290409;28;24434;-63
2024/01/08 10:20:18;;;;;;;3.83;2.22;;;;;;;;;;6291316;28;24439;-62
2024/01/08 10:23:25;;;;;;;3.70;2.00;;;;;;;;;;6291118;28;24428;-63
2024/01/08 10:26:28;;;;;;;4.03;2.30;;;;;;;;;;6288826;28;24435;-64
2024/01/08 10:29:32;;;;;;;3.17;2.17;;;;;;;;;;6292290;28;24808;-62
2024/01/08 10:32:34;;;;;;;4.78;1.95;;;;;;;;;;6291116;28;25064;-64
2024/01/08 10:35:36;;;;;;;3.88;2.05;;;;;;;;;;6292182;28;24461;-63
2024/01/08 10:38:39;;;;;;;3.83;2.10;;;;;;;;;;6273893;28;24430;-64
2024/01/08 10:41:41;;;;;;;3.63;2.05;;;;;;;;;;6276553;28;24476;-63
2024/01/08 10:44:44;;;;;;;4.32;2.55;;;;;;;;;;6293447;28;24455;-63
2024/01/08 10:47:50;;;;;;;3.42;1.98;;;;;;;;;;6291198;28;24430;-64
2024/01/08 10:50:54;;;;;;;4.60;2.58;;;;;;;;;;6288159;28;24497;-63
2024/01/08 10:53:57;;;;;;;3.20;2.30;;;;;;;;;;6283186;28;24637;-64
2024/01/08 10:56:59;;;;;;;4.80;2.80;;;;;;;;;;6289121;28;24890;-63
2024/01/08 11:00:09;;;;;;;4.03;2.40;;;;;;;;;;6290022;28;24437;-63
2024/01/08 11:03:10;;;;;;;5.70;2.75;;;;;;;;;;6289344;28;24430;-63
2024/01/08 11:06:13;;;;;;;4.53;2.85;;;;;;;;;;6289606;28;24426;-65
2024/01/08 11:09:25;;;;;;;4.13;2.60;;;;;;;;;;6289779;28;24426;-64
2024/01/08 11:12:28;;;;;;;5.27;2.40;;;;;;;;;;6288870;28;24617;-64
2024/01/08 11:15:32;;;;;;;4.80;2.57;;;;;;;;;;6289466;28;24836;-64
2024/01/08 11:18:34;;;;;;;3.80;2.60;;;;;;;;;;6271748;28;24472;-63
2024/01/08 11:21:36;;;;;;;4.15;2.40;;;;;;;;;;6288334;28;24846;-62
2024/01/08 11:24:38;;;;;;;3.72;2.67;;;;;;;;;;6287571;28;24422;-63
2024/01/08 11:27:40;;;;;;;5.55;3.00;;;;;;;;;;6291428;28;24847;-63
2024/01/08 11:30:43;;;;;;;3.78;2.45;;;;;;;;;;6288510;28;24411;-63
2024/01/08 11:34:03;;;;;;;4.35;2.90;;;;;;;;;;6272559;28;24429;-63
2024/01/08 11:37:42;;;;;;;4.50;2.83;;;;;;;;;;6287709;28;24827;-64
2024/01/08 11:40:44;;;;;;;4.07;2.70;;;;;;;;;;6283273;28;24430;-63
2024/01/08 11:43:46;;;;;;;5.32;2.70;;;;;;;;;;6288162;28;24411;-62
2024/01/08 11:46:49;;;;;;;5.32;2.88;;;;;;;;;;6289038;28;24422;-64
2024/01/08 11:49:51;;;;;;;3.83;2.85;;;;;;;;;;6287073;28;24796;-62
2024/01/08 11:52:54;;;;;;;4.72;3.05;;;;;;;;;;6288286;28;24457;-63
2024/01/08 11:55:56;;;;;;;5.20;3.05;;;;;;;;;;6288181;28;24863;-64
2024/01/08 11:58:58;;;;;;;4.88;2.90;;;;;;;;;;6269665;28;24597;-63
2024/01/08 12:02:12;;;;;;;4.35;3.05;;;;;;;;;;6270781;28;24539;-64
2024/01/08 12:05:14;;;;;;;4.65;3.25;;;;;;;;;;6286879;28;24440;-63
2024/01/08 12:08:17;;;;;;;4.95;3.20;;;;;;;;;;6289798;28;24407;-64
2024/01/08 12:11:19;;;;;;;5.22;3.30;;;;;;;;;;6290123;28;24511;-63
2024/01/08 12:14:21;;;;;;;5.00;3.17;;;;;;;;;;6289154;28;24851;-64
2024/01/08 12:17:25;;;;;;;7.17;3.73;;;;;;;;;;6294932;28;24422;-64
2024/01/08 12:20:27;;;;;;;6.80;3.58;;;;;;;;;;6288716;28;24431;-63
2024/01/08 12:23:29;;;;;;;5.90;3.30;;;;;;;;;;6285555;28;25160;-63
2024/01/08 12:26:31;;;;;;;5.10;3.40;;;;;;;;;;6289727;28;24431;-64
2024/01/08 12:29:33;;;;;;;4.68;2.80;;;;;;;;;;6273255;28;24414;-64
2024/01/08 12:32:37;;;;;;;4.50;3.15;;;;;;;;;;6292150;28;24430;-64
2024/01/08 12:35:39;;;;;;;3.88;3.10;;;;;;;;;;6290380;28;24502;-65
2024/01/08 12:38:42;;;;;;;4.63;3.30;;;;;;;;;;6287086;28;24629;-66
2024/01/08 12:41:45;;;;;;;4.93;3.53;;;;;;;;;;6288761;28;24431;-64
2024/01/08 12:44:48;;;;;;;5.95;3.55;;;;;;;;;;6270124;28;24473;-64
2024/01/08 12:47:51;;;;;;;5.47;3.45;;;;;;;;;;6287240;28;24545;-64
2024/01/08 12:50:53;;;;;;;6.40;3.70;;;;;;;;;;6288318;28;24922;-65
2024/01/08 12:53:55;;;;;;;6.40;3.95;;;;;;;;;;6290364;28;24431;-65
2024/01/08 12:56:57;;;;;;;5.38;3.78;;;;;;;;;;6289936;28;24824;-65
2024/01/08 12:59:59;;;;;;;6.72;4.40;;;;;;;;;;6283378;28;24434;-64
2024/01/08 13:03:02;;;;;;;8.00;4.50;;;;;;;;;;6287561;28;24419;-65
2024/01/08 13:06:07;;;;;;;9.02;5.10;;;;;;;;;;6284851;28;24431;-64
2024/01/08 13:09:08;;;;;;;6.55;4.70;;;;;;;;;;6289773;28;24424;-64
2024/01/08 13:12:10;;;;;;;6.10;4.63;;;;;;;;;;6293241;28;24482;-64
2024/01/08 13:15:12;;;;;;;7.03;4.87;;;;;;;;;;6290232;28;24415;-64
2024/01/08 13:18:15;;;;;;;6.97;4.63;;;;;;;;;;6289131;28;24426;-64
2024/01/08 13:21:17;;;;;;;7.00;4.47;;;;;;;;;;6291973;28;24431;-64
2024/01/08 13:24:19;;;;;;;7.20;4.57;;;;;;;;;;6295089;28;24480;-64
2024/01/08 13:27:21;;;;;;;7.57;4.70;;;;;;;;;;6293678;28;24434;-63
2024/01/08 13:30:23;;;;;;;6.80;4.57;;;;;;;;;;6296068;28;24484;-65
2024/01/08 13:33:26;;;;;;;6.35;4.53;;;;;;;;;;6293287;28;24431;-64
2024/01/08 13:36:28;;;;;;;7.03;4.78;;;;;;;;;;6274321;28;24486;-64
2024/01/08 13:39:30;;;;;;;6.93;4.43;;;;;;;;;;6264857;28;24497;-64
2024/01/08 13:42:31;;;;;;;7.90;4.53;;;;;;;;;;6288525;28;24434;-64
2024/01/08 13:45:33;;;;;;;6.87;4.60;;;;;;;;;;6292263;28;24813;-64
2024/01/08 13:48:36;;;;;;;7.10;4.53;;;;;;;;;;6294745;28;24832;-64
2024/01/08 13:51:38;;;;;;;6.85;4.47;;;;;;;;;;6292491;28;24473;-64
2024/01/08 13:54:40;;;;;;;10.02;5.00;;;;;;;;;;6294519;28;25020;-62
2024/01/08 13:57:42;;;;;;;6.60;4.10;;;;;;;;;;6291275;28;24460;-63
2024/01/08 14:00:44;;;;;;;5.83;4.27;;;;;;;;;;6288740;28;24431;-63
2024/01/08 14:03:47;;;;;;;5.00;3.60;;;;;;;;;;6293518;28;24419;-63
2024/01/08 14:06:49;;;;;;;5.35;3.65;;;;;;;;;;6291086;28;24419;-63
2024/01/08 14:09:50;;;;;;;5.85;3.40;;;;;;;;;;6290789;28;24434;-64
2024/01/08 14:12:52;;;;;;;5.40;3.58;;;;;;;;;;6292073;28;24804;-64
2024/01/08 14:15:54;;;;;;;6.30;3.58;;;;;;;;;;6291575;28;24796;-65
2024/01/08 14:18:57;;;;;;;5.00;3.40;;;;;;;;;;6286412;28;24410;-64
2024/01/08 14:21:59;;;;;;;4.90;3.42;;;;;;;;;;6289880;28;24462;-64
2024/01/08 14:25:01;;;;;;;5.65;3.70;;;;;;;;;;6275423;28;24441;-64
2024/01/08 14:28:03;;;;;;;6.93;3.75;;;;;;;;;;6291346;28;24427;-64
2024/01/08 14:31:08;;;;;;;5.47;4.00;;;;;;;;;;6272420;28;24513;-64
2024/01/08 14:34:11;;;;;;;6.57;3.80;;;;;;;;;;6289659;28;24438;-64
2024/01/08 14:37:13;;;;;;;7.60;3.90;;;;;;;;;;6291186;28;24430;-64
2024/01/08 14:40:19;;;;;;;6.60;4.30;;;;;;;;;;6289511;28;24442;-64
2024/01/08 14:43:21;;;;;;;7.95;4.15;;;;;;;;;;6272532;28;24446;-64
2024/01/08 14:46:23;;;;;;;5.85;4.05;;;;;;;;;;6271830;28;24418;-64
2024/01/08 14:49:26;;;;;;;8.40;4.40;;;;;;;;;;6291388;28;24637;-64
2024/01/08 14:52:28;;;;;;;5.57;4.20;;;;;;;;;;6289706;28;24648;-64
2024/01/08 14:55:30;;;;;;;5.90;4.13;;;;;;;;;;6290290;28;24422;-63
2024/01/08 14:58:31;;;;;;;6.10;4.13;;;;;;;;;;6292505;28;24492;-63
2024/01/08 15:01:33;;;;;;;7.18;4.38;;;;;;;;;;6293255;28;24665;-63
2024/01/08 15:04:37;;;;;;;19.90;11.73;;;;;;;;;;6283041;28;24490;-64
2024/01/08 15:07:38;;;;;;;12.63;7.25;;;;;;;;;;6272322;28;24419;-63
2024/01/08 15:10:40;;;;;;;16.17;8.00;;;;;;;;;;6288829;28;24842;-64
2024/01/08 15:13:42;;;;;;;13.77;7.60;;;;;;;;;;6289833;28;24418;-64
2024/01/08 15:16:45;;;;;;;8.32;5.65;;;;;;;;;;6288407;28;25057;-62
2024/01/08 15:19:48;;;;;;;11.02;6.93;;;;;;;;;;6270587;28;24431;-65
2024/01/08 15:22:50;;;;;;;10.90;6.65;;;;;;;;;;6290083;28;24411;-65
2024/01/08 15:25:52;;;;;;;22.27;12.52;;;;;;;;;;6290404;28;24407;-65
2024/01/08 15:28:53;;;;;;;9.98;6.35;;;;;;;;;;6288879;28;24411;-66
2024/01/08 15:31:55;;;;;;;8.18;4.60;;;;;;;;;;6286650;28;24449;-66
2024/01/08 15:34:58;;;;;;;5.68;4.05;;;;;;;;;;6270193;28;24411;-65
2024/01/08 15:38:00;;;;;;;5.60;3.95;;;;;;;;;;6287011;28;24597;-64
2024/01/08 15:41:02;;;;;;;5.55;3.63;;;;;;;;;;6288704;28;24819;-65
2024/01/08 15:44:04;;;;;;;5.97;3.85;;;;;;;;;;6288744;28;24430;-65
2024/01/08 15:47:06;;;;;;;6.38;3.95;;;;;;;;;;6287306;28;24836;-65
2024/01/08 15:50:11;;;;;;;4.65;3.42;;;;;;;;;;6287754;28;24538;-64
2024/01/08 15:53:13;;;;;;;4.78;3.60;;;;;;;;;;6286297;28;24407;-65
2024/01/08 15:56:14;;;;;;;5.35;3.80;;;;;;;;;;6292078;28;24418;-66
2024/01/08 15:59:16;;;;;;;5.90;3.83;;;;;;;;;;6271744;28;24465;-66
2024/01/08 16:02:18;;;;;;;5.25;3.67;;;;;;;;;;6288020;28;24813;-66
2024/01/08 16:05:21;;;;;;;5.85;3.35;;;;;;;;;;6287343;28;24417;-66
2024/01/08 16:08:24;;;;;;;4.93;3.47;;;;;;;;;;6290753;28;24815;-66
2024/01/08 16:11:25;;;;;;;5.40;3.75;;;;;;;;;;6273034;28;24433;-65
2024/01/08 16:14:27;;;;;;;5.70;4.18;;;;;;;;;;6291658;28;24597;-66
2024/01/08 16:17:29;;;;;;;6.30;4.10;;;;;;;;;;6291352;28;24418;-66
2024/01/08 16:20:32;;;;;;;6.28;4.20;;;;;;;;;;6293780;28;24427;-64
2024/01/08 16:23:34;;;;;;;6.30;4.50;;;;;;;;;;6289762;28;24500;-66
2024/01/08 16:26:36;;;;;;;6.32;4.07;;;;;;;;;;6289305;28;24437;-64
2024/01/08 16:29:37;;;;;;;6.28;4.38;;;;;;;;;;6287173;28;24435;-65
2024/01/08 16:32:39;;;;;;;6.10;4.28;;;;;;;;;;6289654;28;24422;-66
2024/01/08 16:35:42;;;;;;;5.85;4.07;;;;;;;;;;6269874;28;24420;-65
2024/01/08 16:38:44;;;;;;;5.55;4.07;;;;;;;;;;6287358;28;24411;-66
2024/01/08 16:41:46;;;;;;;6.82;4.00;;;;;;;;;;6288166;28;24427;-64
2024/01/08 16:44:48;;;;;;;6.70;4.60;;;;;;;;;;6291717;28;24535;-65
2024/01/08 16:47:49;;;;;;;6.03;4.63;;;;;;;;;;6292358;28;24835;-65
2024/01/08 16:50:53;;;;;;;6.75;4.93;;;;;;;;;;6274194;28;24434;-65
2024/01/08 16:53:55;;;;;;;7.03;4.70;;;;;;;;;;6291844;28;24419;-65
2024/01/08 16:56:57;;;;;;;7.68;4.88;;;;;;;;;;6294100;28;24823;-65
2024/01/08 16:59:59;;;;;;;8.13;4.93;;;;;;;;;;6293453;28;24500;-65
2024/01/08 17:03:01;;;;;;;8.07;5.00;;;;;;;;;;6291458;28;24778;-66
2024/01/08 17:06:05;;;;;;;8.18;5.22;;;;;;;;;;6294020;28;24617;-65
2024/01/08 17:09:08;;;;;;;8.03;5.53;;;;;;;;;;6290004;28;24531;-66
2024/01/08 17:12:10;;;;;;;8.93;6.22;;;;;;;;;;6291922;28;24427;-65
2024/01/08 17:15:12;;;;;;;8.43;5.80;;;;;;;;;;6294461;28;24464;-65
2024/01/08 17:18:13;;;;;;;8.50;5.70;;;;;;;;;;6293191;28;24808;-65
2024/01/08 17:21:21;;;;;;;8.98;6.00;;;;;;;;;;6290798;28;24465;-65
2024/01/08 17:24:23;;;;;;;7.93;5.70;;;;;;;;;;6291890;28;24872;-65
2024/01/08 17:27:25;;;;;;;9.30;6.03;;;;;;;;;;6291909;28;24427;-66
2024/01/08 17:30:26;;;;;;;9.02;6.15;;;;;;;;;;6292079;28;24425;-65
2024/01/08 17:33:28;;;;;;;9.38;6.10;;;;;;;;;;6293225;28;24840;-65
2024/01/08 17:36:31;;;;;;;8.90;6.30;;;;;;;;;;6290198;28;24444;-65
2024/01/08 17:39:33;;;;;;;10.15;6.82;;;;;;;;;;6287882;28;24507;-65
2024/01/08 17:42:37;;;;;;;10.73;6.70;;;;;;;;;;6292375;28;24522;-64
2024/01/08 17:45:39;;;;;;;9.85;6.15;;;;;;;;;;6288791;28;24496;-66
2024/01/08 17:48:41;;;;;;;10.10;6.45;;;;;;;;;;6291761;28;24434;-65
2024/01/08 17:51:44;;;;;;;9.32;6.28;;;;;;;;;;6295494;28;24426;-65
2024/01/08 17:54:46;;;;;;;9.23;6.15;;;;;;;;;;6289797;28;24431;-65
2024/01/08 17:57:51;;;;;;;9.00;6.20;;;;;;;;;;6291788;28;24805;-65
2024/01/08 18:00:53;;;;;;;10.40;6.22;;;;;;;;;;6295460;28;24422;-65
2024/01/08 18:03:55;;;;;;;9.45;6.05;;;;;;;;;;6291806;28;24521;-65
2024/01/08 18:06:59;;;;;;;8.48;5.68;;;;;;;;;;6290357;28;24645;-64
2024/01/08 18:10:01;;;;;;;9.10;6.20;;;;;;;;;;6292302;28;24434;-65
2024/01/08 18:13:03;;;;;;;8.67;6.17;;;;;;;;;;6289070;28;24487;-65